createdAt,value
2019-01-13T00:00:24.494Z,56.67
2019-01-13T00:02:53.237Z,51.10
2019-01-13T00:05:22.060Z,43.70
2019-01-13T00:07:50.744Z,34.37
2019-01-13T00:10:19.428Z,26.20
2019-01-13T00:12:48.165Z,18.67
2019-01-13T00:15:16.854Z,20.43
2019-01-13T00:17:45.533Z,21.10
2019-01-13T00:20:14.592Z,20.00
2019-01-13T00:22:43.286Z,21.00
2019-01-13T00:25:11.974Z,23.03
2019-01-13T00:27:40.697Z,22.63
2019-01-13T00:30:21.459Z,24.00
2019-01-13T00:32:50.289Z,24.43
2019-01-13T00:35:18.970Z,20.00
2019-01-13T00:37:47.646Z,26.23
2019-01-13T00:40:18.542Z,22.43
2019-01-13T00:42:47.217Z,18.40
2019-01-13T00:45:16.595Z,17.97
2019-01-13T00:47:45.319Z,16.57
2019-01-13T00:50:15.204Z,16.73
2019-01-13T00:52:44.108Z,16.67
2019-01-13T00:55:14.911Z,16.87
2019-01-13T00:57:43.594Z,15.43
2019-01-13T01:00:26.577Z,18.50
2019-01-13T01:02:51.804Z,17.17
2019-01-13T01:05:20.582Z,14.17
2019-01-13T01:07:51.646Z,14.50
2019-01-13T01:10:21.902Z,17.97
2019-01-13T01:12:50.684Z,15.93
2019-01-13T01:15:20.051Z,19.77
2019-01-13T01:17:48.835Z,18.70
2019-01-13T01:20:18.015Z,23.97
2019-01-13T01:22:46.730Z,22.73
2019-01-13T01:25:19.814Z,17.70
2019-01-13T01:27:48.426Z,17.70
2019-01-13T01:30:21.081Z,17.77
2019-01-13T01:32:49.760Z,18.80
2019-01-13T01:35:18.638Z,28.13
2019-01-13T01:37:48.153Z,22.10
2019-01-13T01:40:18.839Z,20.17
2019-01-13T01:42:47.622Z,15.37
2019-01-13T01:45:18.351Z,13.97
2019-01-13T01:47:47.337Z,16.97
2019-01-13T01:50:16.217Z,14.43
2019-01-13T01:52:45.704Z,16.03
2019-01-13T01:55:18.710Z,13.97
2019-01-13T01:57:48.156Z,15.00
2019-01-13T02:00:19.653Z,15.07
2019-01-13T02:02:48.331Z,13.27
2019-01-13T02:05:17.069Z,15.23
2019-01-13T02:07:45.745Z,19.23
2019-01-13T02:10:16.729Z,19.60
2019-01-13T02:12:45.406Z,17.77
2019-01-13T02:15:19.833Z,17.53
2019-01-13T02:17:48.620Z,17.10
2019-01-13T02:20:20.203Z,16.70
2019-01-13T02:22:49.053Z,18.17
2019-01-13T02:25:21.039Z,16.93
2019-01-13T02:27:49.724Z,15.83
2019-01-13T02:30:25.793Z,17.60
2019-01-13T02:32:54.436Z,17.17
2019-01-13T02:35:23.218Z,19.47
2019-01-13T02:37:51.949Z,19.73
2019-01-13T02:40:22.120Z,14.20
2019-01-13T02:42:51.190Z,14.33
2019-01-13T02:45:22.784Z,12.27
2019-01-13T02:47:51.470Z,11.03
2019-01-13T02:50:20.349Z,13.67
2019-01-13T02:52:49.598Z,14.17
2019-01-13T02:55:18.289Z,11.73
2019-01-13T02:57:47.071Z,11.67
2019-01-13T03:00:19.249Z,10.43
2019-01-13T03:06:38.457Z,11.30
2019-01-13T03:09:08.140Z,11.10
2019-01-13T03:11:36.965Z,11.40
2019-01-13T03:14:06.448Z,10.63
2019-01-13T03:16:35.062Z,10.87
2019-01-13T03:19:03.958Z,11.43
2019-01-13T03:21:32.632Z,12.97
2019-01-13T03:24:01.308Z,12.97
2019-01-13T03:26:30.166Z,11.53
2019-01-13T03:28:58.878Z,12.37
2019-01-13T03:31:27.613Z,11.13
2019-01-13T03:33:56.467Z,11.07
2019-01-13T03:36:25.157Z,11.90
2019-01-13T03:38:53.838Z,12.03
2019-01-13T03:41:22.859Z,10.97
2019-01-13T03:43:51.484Z,12.23
2019-01-13T03:46:20.166Z,12.47
2019-01-13T03:48:48.892Z,14.47
2019-01-13T03:51:17.572Z,14.33
2019-01-13T03:53:46.251Z,13.60
2019-01-13T03:56:15.074Z,14.00
2019-01-13T03:58:43.750Z,14.03
2019-01-13T04:01:18.561Z,15.27
2019-01-13T04:03:43.094Z,14.53
2019-01-13T04:06:11.768Z,15.10
2019-01-13T04:08:40.449Z,13.77
2019-01-13T04:11:09.177Z,13.87
2019-01-13T04:13:37.860Z,13.87
2019-01-13T04:16:06.532Z,13.17
2019-01-13T04:18:35.263Z,15.77
2019-01-13T04:21:04.352Z,14.83
2019-01-13T04:23:32.956Z,18.53
2019-01-13T04:26:01.703Z,18.23
2019-01-13T04:28:30.383Z,17.23
2019-01-13T04:30:59.064Z,16.87
2019-01-13T04:33:28.281Z,17.07
2019-01-13T04:35:56.956Z,16.27
2019-01-13T04:38:25.643Z,24.43
2019-01-13T04:40:54.459Z,25.67
2019-01-13T04:43:23.146Z,18.67
2019-01-13T04:45:51.818Z,15.33
2019-01-13T04:48:20.664Z,27.47
2019-01-13T04:50:49.346Z,23.83
2019-01-13T04:53:18.032Z,19.70
2019-01-13T04:55:46.776Z,15.70
2019-01-13T04:58:15.439Z,17.37
2019-01-13T05:00:44.052Z,16.27
2019-01-13T05:03:12.888Z,21.07
2019-01-13T05:05:41.568Z,26.07
2019-01-13T05:08:10.250Z,23.37
2019-01-13T05:10:39.001Z,20.63
2019-01-13T05:13:07.688Z,20.77
2019-01-13T05:15:36.369Z,21.77
2019-01-13T05:18:05.118Z,16.70
2019-01-13T05:20:33.789Z,18.37
2019-01-13T05:23:02.477Z,15.70
2019-01-13T05:25:31.246Z,16.70
2019-01-13T05:27:59.859Z,14.67
2019-01-13T05:30:28.533Z,14.63
2019-01-13T05:32:57.453Z,14.23
2019-01-13T05:35:26.174Z,13.57
2019-01-13T05:37:54.825Z,13.33
2019-01-13T05:40:23.550Z,12.93
2019-01-13T05:42:52.231Z,11.63
2019-01-13T05:45:21.212Z,10.87
2019-01-13T05:47:49.953Z,11.80
2019-01-13T05:50:19.736Z,9.67
2019-01-13T05:52:49.309Z,9.73
2019-01-13T05:55:18.292Z,10.10
2019-01-13T05:57:46.931Z,10.20
2019-01-13T06:00:18.082Z,10.77
2019-01-13T06:02:46.817Z,9.70
2019-01-13T06:05:15.599Z,9.93
2019-01-13T06:07:44.282Z,9.37
2019-01-13T06:10:15.595Z,9.50
2019-01-13T06:12:44.280Z,9.13
2019-01-13T06:15:15.675Z,9.10
2019-01-13T06:17:44.499Z,10.10
2019-01-13T06:20:15.779Z,16.00
2019-01-13T06:22:44.460Z,20.03
2019-01-13T06:25:14.022Z,18.10
2019-01-13T06:27:42.800Z,12.30
2019-01-13T06:30:17.148Z,10.77
2019-01-13T06:32:45.972Z,17.37
2019-01-13T06:35:14.654Z,14.60
2019-01-13T06:37:43.342Z,13.57
2019-01-13T06:40:16.043Z,15.87
2019-01-13T06:42:44.728Z,30.60
2019-01-13T06:45:16.045Z,34.33
2019-01-13T06:47:44.799Z,22.43
2019-01-13T06:50:16.531Z,11.60
2019-01-13T06:52:45.170Z,12.37
2019-01-13T06:55:15.140Z,9.27
2019-01-13T06:57:43.820Z,8.93
2019-01-13T07:00:21.875Z,8.50
2019-01-13T07:02:50.530Z,12.20
2019-01-13T07:05:23.424Z,15.17
2019-01-13T07:07:52.362Z,16.33
2019-01-13T07:10:21.044Z,33.50
2019-01-13T07:12:49.733Z,31.63
2019-01-13T07:15:20.183Z,14.20
2019-01-13T07:17:48.866Z,9.77
2019-01-13T07:20:18.949Z,13.27
2019-01-13T07:22:47.664Z,16.03
2019-01-13T07:25:16.345Z,13.50
2019-01-13T07:27:45.030Z,10.53
2019-01-13T07:30:19.026Z,11.80
2019-01-13T07:32:47.707Z,27.43
2019-01-13T07:35:16.388Z,19.03
2019-01-13T07:37:45.225Z,30.93
2019-01-13T07:40:16.216Z,38.40
2019-01-13T07:42:44.943Z,32.20
2019-01-13T07:45:19.363Z,18.73
2019-01-13T07:47:48.011Z,27.13
2019-01-13T07:50:18.560Z,17.23
2019-01-13T07:52:47.781Z,14.10
2019-01-13T07:55:18.574Z,11.93
2019-01-13T07:57:47.518Z,14.53
2019-01-13T08:00:21.953Z,20.17
2019-01-13T08:02:50.625Z,20.63
2019-01-13T08:05:19.297Z,17.40
2019-01-13T08:07:48.129Z,17.33
2019-01-13T08:10:16.817Z,16.27
2019-01-13T08:12:45.695Z,18.77
2019-01-13T08:15:19.286Z,19.43
2019-01-13T08:17:47.964Z,19.00
2019-01-13T08:20:22.739Z,23.40
2019-01-13T08:22:51.660Z,27.00
2019-01-13T08:25:20.452Z,30.87
2019-01-13T08:27:49.117Z,31.40
2019-01-13T08:30:19.825Z,28.73
2019-01-13T08:32:48.502Z,32.57
2019-01-13T08:35:17.288Z,35.67
2019-01-13T08:37:46.101Z,43.10
2019-01-13T08:40:17.036Z,28.70
2019-01-13T08:42:45.659Z,29.33
2019-01-13T08:45:14.571Z,31.20
2019-01-13T08:47:43.255Z,25.50
2019-01-13T08:50:17.394Z,22.40
2019-01-13T08:52:46.111Z,16.43
2019-01-13T08:55:15.186Z,16.40
2019-01-13T08:57:44.070Z,16.67
2019-01-13T09:00:15.700Z,15.77
2019-01-13T09:02:44.585Z,16.50
2019-01-13T09:05:13.274Z,16.17
2019-01-13T09:07:42.773Z,15.00
2019-01-13T09:10:16.482Z,13.97
2019-01-13T09:12:45.239Z,20.43
2019-01-13T09:15:20.307Z,14.80
2019-01-13T09:17:49.184Z,13.83
2019-01-13T09:20:27.025Z,12.53
2019-01-13T09:22:56.173Z,13.37
2019-01-13T09:25:24.953Z,13.00
2019-01-13T09:27:53.681Z,14.70
2019-01-13T09:30:27.255Z,15.23
2019-01-13T09:32:55.932Z,15.97
2019-01-13T09:35:25.291Z,15.83
2019-01-13T09:37:54.467Z,14.47
2019-01-13T09:40:28.131Z,24.33
2019-01-13T09:42:57.564Z,12.90
2019-01-13T09:45:26.441Z,15.47
2019-01-13T09:47:55.208Z,13.83
2019-01-13T09:50:24.763Z,35.37
2019-01-13T09:52:53.619Z,16.20
2019-01-13T09:55:24.194Z,13.63
2019-01-13T09:57:53.019Z,16.77
2019-01-13T10:00:24.323Z,12.93
2019-01-13T10:02:56.036Z,14.73
2019-01-13T10:05:24.766Z,14.43
2019-01-13T10:07:53.443Z,14.53
2019-01-13T10:10:22.133Z,12.60
2019-01-13T10:12:51.162Z,13.27
2019-01-13T10:15:22.138Z,16.27
2019-01-13T10:17:50.821Z,30.77
2019-01-13T10:20:19.641Z,12.77
2019-01-13T10:22:48.348Z,15.97
2019-01-13T10:25:17.994Z,18.37
2019-01-13T10:27:46.836Z,16.80
2019-01-13T10:30:23.911Z,15.43
2019-01-13T10:32:55.584Z,16.97
2019-01-13T10:35:23.757Z,14.43
2019-01-13T10:37:53.971Z,13.27
2019-01-13T10:40:27.798Z,13.70
2019-01-13T10:42:56.588Z,15.90
2019-01-13T10:45:25.284Z,16.43
2019-01-13T10:47:54.094Z,11.90
2019-01-13T10:50:27.817Z,13.10
2019-01-13T10:52:58.427Z,10.97
2019-01-13T10:55:27.624Z,12.70
2019-01-13T10:57:57.519Z,18.73
2019-01-13T11:00:28.742Z,23.17
2019-01-13T11:03:02.094Z,19.10
2019-01-13T11:05:27.840Z,13.30
2019-01-13T11:07:57.474Z,17.00
2019-01-13T11:10:26.151Z,14.87
2019-01-13T11:12:54.827Z,26.93
2019-01-13T11:15:23.782Z,14.57
2019-01-13T11:17:52.467Z,10.30
2019-01-13T11:20:27.024Z,7.63
2019-01-13T11:22:55.829Z,9.07
2019-01-13T11:25:24.600Z,9.00
2019-01-13T11:27:53.318Z,7.67
2019-01-13T11:30:24.484Z,9.00
2019-01-13T11:32:53.245Z,9.37
2019-01-13T11:35:22.144Z,16.60
2019-01-13T11:37:50.993Z,94.60
2019-01-13T11:40:24.985Z,13.07
2019-01-13T11:42:53.691Z,12.43
2019-01-13T11:45:22.372Z,12.23
2019-01-13T11:47:51.044Z,11.70
2019-01-13T11:50:22.558Z,11.07
2019-01-13T11:52:51.241Z,13.43
2019-01-13T11:55:20.033Z,7.80
2019-01-13T11:57:49.039Z,17.80
2019-01-13T12:00:23.252Z,7.47
2019-01-13T12:02:52.026Z,8.03
2019-01-13T12:05:20.873Z,10.10
2019-01-13T12:07:49.551Z,20.70
2019-01-13T12:10:20.240Z,10.63
2019-01-13T12:12:49.771Z,13.27
2019-01-13T12:15:20.666Z,18.57
2019-01-13T12:17:49.324Z,8.90
2019-01-13T12:20:20.245Z,11.80
2019-01-13T12:22:49.028Z,14.93
2019-01-13T12:25:19.609Z,9.13
2019-01-13T12:27:48.347Z,20.80
2019-01-13T12:30:20.041Z,12.80
2019-01-13T12:32:49.997Z,17.83
2019-01-13T12:35:18.723Z,11.13
2019-01-13T12:37:47.501Z,17.60
2019-01-13T12:40:21.357Z,16.37
2019-01-13T12:42:50.186Z,11.07
2019-01-13T12:45:21.260Z,17.70
2019-01-13T12:47:50.030Z,14.40
2019-01-13T12:50:21.588Z,12.17
2019-01-13T12:52:50.359Z,8.60
2019-01-13T12:55:19.137Z,22.23
2019-01-13T12:57:48.007Z,18.73
2019-01-13T13:00:18.824Z,12.77
2019-01-13T13:02:47.499Z,20.90
2019-01-13T13:05:17.194Z,24.20
2019-01-13T13:07:46.473Z,12.67
2019-01-13T13:10:21.058Z,7.67
2019-01-13T13:12:50.213Z,20.57
2019-01-13T13:15:18.885Z,23.40
2019-01-13T13:17:47.569Z,15.70
2019-01-13T13:20:17.209Z,17.73
2019-01-13T13:22:47.190Z,18.60
2019-01-13T13:25:16.069Z,8.07
2019-01-13T13:27:44.816Z,14.13
2019-01-13T13:30:19.055Z,17.47
2019-01-13T13:32:47.714Z,19.70
2019-01-13T13:35:16.443Z,19.53
2019-01-13T13:37:45.515Z,26.27
2019-01-13T13:40:17.392Z,18.00
2019-01-13T13:42:46.214Z,21.37
2019-01-13T13:45:15.288Z,15.50
2019-01-13T13:47:44.164Z,16.87
2019-01-13T13:50:18.786Z,18.70
2019-01-13T13:52:47.560Z,17.77
2019-01-13T13:55:16.246Z,15.40
2019-01-13T13:57:45.057Z,18.50
2019-01-13T14:00:17.010Z,13.53
2019-01-13T14:02:45.684Z,15.30
2019-01-13T14:05:14.508Z,17.53
2019-01-13T14:07:43.176Z,14.57
2019-01-13T14:10:27.033Z,16.00
2019-01-13T14:12:55.634Z,21.27
2019-01-13T14:15:24.610Z,24.87
2019-01-13T14:17:53.321Z,21.20
2019-01-13T14:20:22.000Z,15.40
2019-01-13T14:22:50.675Z,19.40
2019-01-13T14:25:19.775Z,19.83
2019-01-13T14:27:48.459Z,24.40
2019-01-13T14:30:20.048Z,21.10
2019-01-13T14:32:49.080Z,28.83
2019-01-13T14:35:17.932Z,34.10
2019-01-13T14:37:46.710Z,22.10
2019-01-13T14:40:17.867Z,29.37
2019-01-13T14:42:46.544Z,32.80
2019-01-13T14:45:17.426Z,49.00
2019-01-13T14:47:46.342Z,48.50
2019-01-13T14:50:17.924Z,35.30
2019-01-13T14:52:47.095Z,53.50
2019-01-13T14:55:15.919Z,61.63
2019-01-13T14:57:44.604Z,57.33
2019-01-13T15:00:16.204Z,56.53
2019-01-13T15:02:45.349Z,58.80
2019-01-13T15:05:14.844Z,74.83
2019-01-13T15:07:43.511Z,62.07
2019-01-13T15:10:15.199Z,65.70
2019-01-13T15:12:43.886Z,65.63
2019-01-13T15:15:14.666Z,67.37
2019-01-13T15:17:43.581Z,61.97
2019-01-13T15:20:17.016Z,53.63
2019-01-13T15:22:45.791Z,51.00
2019-01-13T15:25:17.663Z,53.37
2019-01-13T15:27:46.352Z,38.80
2019-01-13T15:30:29.369Z,34.90
2019-01-13T15:32:58.071Z,34.90
2019-01-13T15:35:27.554Z,35.93
2019-01-13T15:37:56.497Z,35.20
2019-01-13T15:40:25.178Z,37.13
2019-01-13T15:42:54.062Z,44.23
2019-01-13T15:45:22.913Z,49.77
2019-01-13T15:47:51.586Z,58.53
2019-01-13T15:50:25.485Z,43.17
2019-01-13T15:52:55.044Z,38.10
2019-01-13T15:55:23.786Z,41.43
2019-01-13T15:57:52.465Z,29.63
2019-01-13T16:00:26.530Z,25.40
2019-01-13T16:02:55.222Z,28.50
2019-01-13T16:05:23.905Z,27.87
2019-01-13T16:07:52.858Z,34.77
2019-01-13T16:10:23.550Z,73.90
2019-01-13T16:12:52.228Z,62.37
2019-01-13T16:15:21.587Z,74.20
2019-01-13T16:17:50.465Z,72.63
2019-01-13T16:20:22.062Z,39.13
2019-01-13T16:22:50.777Z,28.63
2019-01-13T16:25:19.463Z,25.27
2019-01-13T16:27:48.141Z,22.30
2019-01-13T16:30:19.743Z,20.47
2019-01-13T16:32:48.422Z,20.00
2019-01-13T16:35:17.105Z,22.17
2019-01-13T16:37:45.866Z,20.83
2019-01-13T16:40:16.674Z,18.10
2019-01-13T16:42:45.467Z,17.10
2019-01-13T16:45:16.123Z,17.17
2019-01-13T16:47:44.803Z,17.57
2019-01-13T16:50:15.682Z,14.77
2019-01-13T16:52:45.892Z,15.97
2019-01-13T16:55:14.667Z,15.47
2019-01-13T16:57:43.347Z,18.93
2019-01-13T17:00:23.121Z,20.07
2019-01-13T17:02:51.901Z,26.10
2019-01-13T17:05:21.873Z,34.47
2019-01-13T17:07:50.708Z,33.80
2019-01-13T17:10:21.385Z,24.30
2019-01-13T17:12:50.068Z,17.00
2019-01-13T17:15:21.388Z,17.03
2019-01-13T17:17:50.063Z,16.97
2019-01-13T17:20:23.216Z,18.00
2019-01-13T17:22:52.456Z,18.40
2019-01-13T17:25:23.333Z,18.30
2019-01-13T17:27:52.100Z,18.40
2019-01-13T17:30:26.061Z,20.77
2019-01-13T17:32:54.741Z,27.17
2019-01-13T17:35:23.449Z,57.40
2019-01-13T17:37:52.226Z,43.30
2019-01-13T17:40:22.708Z,44.07
2019-01-13T17:42:51.633Z,37.57
2019-01-13T17:45:22.746Z,29.70
2019-01-13T17:47:51.922Z,30.43
2019-01-13T17:50:23.005Z,30.90
2019-01-13T17:52:51.738Z,27.10
2019-01-13T17:55:22.784Z,25.90
2019-01-13T17:57:51.567Z,18.90
2019-01-13T18:00:32.368Z,17.17
2019-01-13T18:03:06.355Z,16.00
2019-01-13T18:05:35.042Z,14.50
2019-01-13T18:08:03.776Z,33.87
2019-01-13T18:10:35.238Z,33.77
2019-01-13T18:13:04.024Z,39.60
2019-01-13T18:15:32.877Z,36.60
2019-01-13T18:18:02.154Z,35.47
2019-01-13T18:20:30.851Z,35.93
2019-01-13T18:22:59.665Z,26.83
2019-01-13T18:25:28.346Z,24.37
2019-01-13T18:27:59.110Z,22.53
2019-01-13T18:30:28.739Z,32.07
2019-01-13T18:32:57.414Z,28.77
2019-01-13T18:35:26.096Z,23.10
2019-01-13T18:37:54.934Z,22.50
2019-01-13T18:40:24.815Z,20.20
2019-01-13T18:42:53.509Z,28.23
2019-01-13T18:45:33.333Z,18.00
2019-01-13T18:48:30.373Z,13.67
2019-01-13T18:51:14.840Z,13.80
2019-01-13T18:53:55.034Z,13.00
2019-01-13T18:56:23.877Z,12.97
2019-01-13T18:58:57.837Z,13.33
2019-01-13T19:01:32.426Z,12.80
2019-01-13T19:04:01.047Z,13.17
2019-01-13T19:06:29.719Z,11.40
2019-01-13T19:09:10.993Z,12.17
2019-01-13T19:11:40.205Z,12.87
2019-01-13T19:14:22.948Z,11.80
2019-01-13T19:16:57.319Z,12.37
2019-01-13T19:19:33.989Z,12.07
2019-01-13T19:22:12.738Z,11.13
2019-01-13T19:24:50.684Z,11.97
2019-01-13T19:27:20.489Z,11.13
2019-01-13T19:30:03.934Z,10.47
2019-01-13T19:32:32.621Z,10.97
2019-01-13T19:35:10.958Z,11.83
2019-01-13T19:37:39.663Z,12.60
2019-01-13T19:40:14.765Z,11.07
2019-01-13T19:42:44.777Z,12.47
2019-01-13T19:45:19.010Z,14.23
2019-01-13T19:47:47.717Z,11.83
2019-01-13T19:50:19.065Z,12.37
2019-01-13T19:52:48.749Z,11.93
2019-01-13T19:55:18.575Z,12.60
2019-01-13T19:57:47.389Z,14.13
2019-01-13T20:00:20.835Z,16.67
2019-01-13T20:02:49.684Z,15.07
2019-01-13T20:05:18.541Z,14.43
2019-01-13T20:07:47.228Z,14.30
2019-01-13T20:10:17.450Z,10.57
2019-01-13T20:12:47.781Z,11.87
2019-01-13T20:15:18.936Z,12.00
2019-01-13T20:17:47.717Z,13.00
2019-01-13T20:20:20.013Z,15.80
2019-01-13T20:22:54.099Z,24.90
2019-01-13T20:25:32.377Z,29.23
2019-01-13T20:28:01.658Z,39.30
2019-01-13T20:30:42.266Z,48.40
2019-01-13T20:33:10.955Z,58.97
2019-01-13T20:35:39.635Z,68.93
2019-01-13T20:38:08.481Z,82.40
2019-01-13T20:40:37.176Z,89.10
2019-01-13T20:43:05.860Z,89.20
2019-01-13T20:45:37.366Z,68.50
2019-01-13T20:48:06.154Z,54.60
2019-01-13T20:50:34.862Z,59.67
2019-01-13T20:53:03.984Z,56.20
2019-01-13T20:55:32.683Z,63.10
2019-01-13T20:58:01.396Z,55.63
2019-01-13T21:00:30.590Z,51.47
2019-01-13T21:02:59.271Z,37.43
2019-01-13T21:05:28.062Z,37.03
2019-01-13T21:07:57.270Z,41.93
2019-01-13T21:10:26.459Z,43.47
2019-01-13T21:12:55.149Z,51.27
2019-01-13T21:15:32.882Z,40.83
2019-01-13T21:18:01.567Z,42.47
2019-01-13T21:20:30.251Z,33.23
2019-01-13T21:22:59.093Z,39.17
2019-01-13T21:25:27.781Z,41.53
2019-01-13T21:27:58.026Z,40.50
2019-01-13T21:30:32.219Z,42.00
2019-01-13T21:33:00.902Z,45.37
2019-01-13T21:35:33.735Z,45.33
2019-01-13T21:38:00.096Z,55.03
2019-01-13T21:40:31.555Z,48.57
2019-01-13T21:43:00.238Z,51.00
2019-01-13T21:45:29.360Z,54.80
2019-01-13T21:47:58.047Z,53.50
2019-01-13T21:50:26.945Z,53.10
2019-01-13T21:52:55.827Z,51.73
2019-01-13T21:55:24.516Z,69.47
2019-01-13T21:57:53.207Z,58.77
2019-01-13T22:00:27.209Z,67.97
2019-01-13T22:02:56.410Z,63.77
2019-01-13T22:05:25.398Z,61.63
2019-01-13T22:07:54.228Z,65.50
2019-01-13T22:10:24.414Z,62.13
2019-01-13T22:12:53.505Z,68.00
2019-01-13T22:15:23.055Z,64.80
2019-01-13T22:17:51.764Z,63.40
2019-01-13T22:20:23.506Z,64.77
2019-01-13T22:22:55.352Z,61.70
2019-01-13T22:25:28.229Z,56.13
2019-01-13T22:28:02.357Z,48.70
2019-01-13T22:30:31.039Z,43.07
2019-01-13T22:32:59.719Z,42.37
2019-01-13T22:35:28.480Z,43.00
2019-01-13T22:37:57.157Z,42.53
2019-01-13T22:40:25.844Z,39.30
2019-01-13T22:42:54.581Z,36.20
2019-01-13T22:45:23.860Z,35.67
2019-01-13T22:47:52.482Z,34.40
2019-01-13T22:50:21.666Z,35.37
2019-01-13T22:52:50.449Z,36.83
2019-01-13T22:55:19.129Z,32.43
2019-01-13T22:57:47.933Z,31.90
2019-01-13T23:00:51.457Z,29.93
2019-01-13T23:03:20.865Z,29.63
2019-01-13T23:05:55.654Z,28.93
2019-01-13T23:08:19.945Z,28.43
2019-01-13T23:10:48.782Z,29.03
2019-01-13T23:13:17.476Z,28.00
2019-01-13T23:15:46.163Z,24.40
2019-01-13T23:18:14.912Z,20.83
2019-01-13T23:20:43.599Z,19.87
2019-01-13T23:23:12.274Z,21.20
2019-01-13T23:25:41.365Z,20.00
2019-01-13T23:28:10.040Z,18.83
2019-01-13T23:30:38.732Z,17.33
2019-01-13T23:33:07.451Z,19.13
2019-01-13T23:35:36.136Z,19.07
2019-01-13T23:38:04.824Z,17.37
2019-01-13T23:40:33.590Z,15.20
2019-01-13T23:43:02.228Z,13.60
2019-01-13T23:45:30.911Z,16.30
2019-01-13T23:47:59.754Z,16.03
2019-01-13T23:50:28.439Z,16.30
2019-01-13T23:52:57.105Z,17.30
2019-01-13T23:55:25.872Z,17.70
2019-01-13T23:57:54.543Z,18.33
